createdAt,value
2022-09-28T00:01:26.101Z,9.80
2022-09-28T00:03:57.433Z,7.60
2022-09-28T00:06:28.036Z,8.23
2022-09-28T00:08:58.033Z,11.73
2022-09-28T00:11:28.403Z,8.17
2022-09-28T00:14:00.068Z,10.17
2022-09-28T00:16:32.162Z,9.83
2022-09-28T00:19:01.386Z,10.60
2022-09-28T00:21:32.049Z,10.30
2022-09-28T00:24:16.103Z,8.40
2022-09-28T00:26:48.797Z,9.57
2022-09-28T00:29:24.303Z,9.07
2022-09-28T00:31:57.034Z,15.20
2022-09-28T00:34:25.302Z,7.97
2022-09-28T00:36:53.852Z,7.87
2022-09-28T00:39:23.756Z,10.73
2022-09-28T00:41:52.297Z,13.93
2022-09-28T00:44:42.920Z,10.00
2022-09-28T00:47:40.074Z,9.37
2022-09-28T00:50:19.119Z,11.27
2022-09-28T00:52:53.139Z,8.97
2022-09-28T00:55:33.027Z,10.03
2022-09-28T00:58:04.840Z,9.97
2022-09-28T01:00:33.348Z,9.87
2022-09-28T01:03:01.979Z,11.03
2022-09-28T01:05:31.080Z,9.53
2022-09-28T01:07:59.673Z,8.87
2022-09-28T01:10:32.089Z,9.70
2022-09-28T01:13:00.337Z,9.23
2022-09-28T01:15:30.995Z,11.03
2022-09-28T01:18:18.009Z,8.23
2022-09-28T01:21:02.041Z,11.53
2022-09-28T01:24:06.126Z,10.97
2022-09-28T01:26:57.518Z,9.37
2022-09-28T01:29:44.886Z,9.87
2022-09-28T01:32:24.906Z,9.57
2022-09-28T01:35:01.579Z,11.20
2022-09-28T01:37:38.313Z,9.20
2022-09-28T01:40:10.882Z,9.63
2022-09-28T01:42:44.377Z,11.80
2022-09-28T01:45:19.917Z,14.20
2022-09-28T01:47:50.740Z,11.77
2022-09-28T01:50:24.979Z,10.77
2022-09-28T01:53:00.408Z,12.50
2022-09-28T01:55:34.757Z,17.07
2022-09-28T01:58:13.261Z,9.57
2022-09-28T02:00:49.040Z,11.10
2022-09-28T02:03:23.257Z,17.60
2022-09-28T02:06:05.805Z,9.57
2022-09-28T02:08:40.545Z,13.23
2022-09-28T02:11:15.142Z,11.90
2022-09-28T02:13:50.142Z,10.47
2022-09-28T02:16:26.273Z,14.07
2022-09-28T02:18:54.496Z,16.63
2022-09-28T02:21:30.193Z,12.10
2022-09-28T02:24:03.774Z,13.93
2022-09-28T02:26:39.717Z,10.70
2022-09-28T02:29:09.360Z,12.83
2022-09-28T02:31:37.626Z,10.53
2022-09-28T02:34:06.652Z,9.37
2022-09-28T02:36:35.868Z,9.70
2022-09-28T02:39:04.182Z,9.63
2022-09-28T02:41:51.212Z,11.87
2022-09-28T02:44:44.538Z,9.83
2022-09-28T02:47:30.784Z,9.37
2022-09-28T02:50:13.969Z,11.47
2022-09-28T02:53:07.231Z,10.63
2022-09-28T02:55:53.597Z,10.90
2022-09-28T02:58:34.763Z,10.70
2022-09-28T03:01:20.551Z,11.23
2022-09-28T03:03:58.834Z,13.67
2022-09-28T03:06:37.326Z,10.27
2022-09-28T03:09:15.008Z,9.60
2022-09-28T03:11:49.811Z,11.23
2022-09-28T03:14:18.912Z,13.97
2022-09-28T03:16:53.885Z,10.60
2022-09-28T03:19:28.064Z,10.33
2022-09-28T03:21:56.390Z,11.53
2022-09-28T03:24:24.515Z,11.83
2022-09-28T03:26:52.771Z,11.23
2022-09-28T03:29:21.149Z,11.13
2022-09-28T03:31:55.377Z,11.27
2022-09-28T03:34:23.849Z,13.77
2022-09-28T03:36:52.729Z,11.80
2022-09-28T03:39:20.786Z,17.07
2022-09-28T03:41:48.805Z,15.67
2022-09-28T03:44:18.897Z,14.00
2022-09-28T03:46:49.448Z,15.07
2022-09-28T03:49:18.881Z,12.83
2022-09-28T03:51:48.183Z,13.20
2022-09-28T03:54:16.246Z,13.20
2022-09-28T03:56:44.910Z,12.93
2022-09-28T03:59:13.151Z,11.60
2022-09-28T04:01:41.409Z,14.07
2022-09-28T04:04:12.912Z,12.00
2022-09-28T04:06:42.537Z,15.27
2022-09-28T04:09:11.521Z,16.97
2022-09-28T04:11:59.689Z,16.70
2022-09-28T04:14:27.734Z,16.47
2022-09-28T04:16:55.882Z,18.70
2022-09-28T04:19:26.691Z,19.00
2022-09-28T04:22:08.333Z,16.07
2022-09-28T04:24:36.412Z,20.17
2022-09-28T04:27:22.408Z,18.77
2022-09-28T04:29:50.514Z,22.70
2022-09-28T04:32:19.555Z,20.20
2022-09-28T04:34:47.879Z,21.77
2022-09-28T04:37:17.369Z,21.50
2022-09-28T04:39:48.398Z,21.47
2022-09-28T04:42:19.351Z,25.67
2022-09-28T04:44:50.015Z,23.00
2022-09-28T04:47:18.196Z,20.10
2022-09-28T04:50:13.681Z,18.17
2022-09-28T04:53:03.360Z,23.67
2022-09-28T04:55:32.541Z,21.13
2022-09-28T04:58:02.437Z,21.60
2022-09-28T05:00:33.685Z,20.60
2022-09-28T05:03:22.359Z,23.43
2022-09-28T05:06:18.126Z,20.40
2022-09-28T05:08:49.797Z,24.23
2022-09-28T05:11:19.772Z,20.33
2022-09-28T05:13:48.805Z,21.03
2022-09-28T05:16:20.234Z,21.67
2022-09-28T05:19:12.300Z,21.27
2022-09-28T05:21:43.871Z,25.60
2022-09-28T05:24:13.744Z,24.57
2022-09-28T05:26:44.598Z,21.47
2022-09-28T05:29:12.888Z,20.63
2022-09-28T05:32:01.374Z,22.03
2022-09-28T05:34:38.207Z,19.07
2022-09-28T05:37:06.514Z,20.17
2022-09-28T05:39:36.018Z,20.97
2022-09-28T05:42:04.246Z,22.37
2022-09-28T05:44:32.406Z,23.40
2022-09-28T05:47:00.591Z,22.37
2022-09-28T05:49:31.619Z,20.43
2022-09-28T05:52:01.398Z,24.93
2022-09-28T05:54:29.604Z,24.90
2022-09-28T05:56:58.993Z,24.60
2022-09-28T05:59:30.159Z,32.17
2022-09-28T06:01:58.392Z,39.57
2022-09-28T06:04:27.373Z,42.00
2022-09-28T06:06:55.517Z,45.60
2022-09-28T06:09:26.011Z,47.07
2022-09-28T06:11:59.535Z,53.20
2022-09-28T06:14:40.851Z,48.37
2022-09-28T06:17:09.117Z,54.30
2022-09-28T06:19:37.354Z,52.87
2022-09-28T06:22:24.053Z,52.37
2022-09-28T06:25:07.671Z,58.97
2022-09-28T06:27:37.152Z,55.23
2022-09-28T06:30:06.291Z,57.00
2022-09-28T06:32:34.377Z,58.83
2022-09-28T06:35:02.582Z,55.77
2022-09-28T06:37:32.985Z,53.13
2022-09-28T06:40:02.867Z,56.00
2022-09-28T06:42:31.741Z,59.03
2022-09-28T06:45:21.754Z,67.03
2022-09-28T06:48:10.938Z,59.97
2022-09-28T06:50:43.416Z,66.37
2022-09-28T06:53:28.429Z,62.03
2022-09-28T06:56:00.489Z,62.43
2022-09-28T06:58:30.231Z,62.83
2022-09-28T07:01:01.223Z,65.97
2022-09-28T07:03:32.201Z,64.07
2022-09-28T07:06:20.658Z,61.10
2022-09-28T07:09:23.381Z,57.90
2022-09-28T07:12:13.826Z,57.40
2022-09-28T07:15:03.782Z,57.47
2022-09-28T07:17:41.866Z,55.50
2022-09-28T07:20:19.403Z,50.53
2022-09-28T07:22:54.616Z,54.40
2022-09-28T07:25:25.537Z,47.50
2022-09-28T07:28:12.429Z,44.17
2022-09-28T07:31:03.570Z,48.13
2022-09-28T07:33:54.135Z,49.03
2022-09-28T07:36:36.663Z,48.63
2022-09-28T07:39:05.082Z,46.47
2022-09-28T07:41:33.164Z,46.37
2022-09-28T07:44:06.432Z,41.90
2022-09-28T07:46:37.810Z,44.20
2022-09-28T07:49:12.784Z,43.93
2022-09-28T07:52:06.854Z,44.17
2022-09-28T07:54:43.455Z,41.87
2022-09-28T07:57:34.700Z,38.77
2022-09-28T08:00:17.610Z,49.03
2022-09-28T08:02:48.960Z,40.70
2022-09-28T08:05:23.947Z,37.57
2022-09-28T08:07:52.931Z,43.57
2022-09-28T08:10:21.134Z,41.27
2022-09-28T08:13:04.767Z,41.97
2022-09-28T08:15:40.651Z,39.87
2022-09-28T08:18:15.563Z,40.07
2022-09-28T08:21:03.236Z,37.70
2022-09-28T08:23:32.843Z,34.77
2022-09-28T08:26:01.672Z,33.78
2022-09-28T08:28:29.773Z,35.87
2022-09-28T08:31:02.523Z,35.00
2022-09-28T08:33:35.349Z,34.40
2022-09-28T08:36:23.880Z,33.85
2022-09-28T08:39:14.846Z,29.17
2022-09-28T08:42:18.958Z,30.33
2022-09-28T08:45:07.177Z,29.80
2022-09-28T08:48:28.749Z,33.17
2022-09-28T08:51:21.154Z,38.42
2022-09-28T08:54:31.656Z,37.47
2022-09-28T08:57:08.291Z,33.38
2022-09-28T08:59:49.403Z,36.67
2022-09-28T09:02:28.524Z,36.15
2022-09-28T09:05:15.583Z,40.03
2022-09-28T09:08:23.094Z,38.33
2022-09-28T09:11:02.812Z,36.33
2022-09-28T09:13:58.732Z,33.67
2022-09-28T09:16:42.411Z,35.67
2022-09-28T09:19:54.168Z,40.20
2022-09-28T09:22:41.908Z,35.05
2022-09-28T09:25:21.222Z,35.40
2022-09-28T09:28:56.166Z,36.80
2022-09-28T09:31:50.036Z,30.50
2022-09-28T09:34:57.368Z,30.17
2022-09-28T09:38:10.427Z,27.98
2022-09-28T09:41:11.072Z,29.73
2022-09-28T09:44:36.211Z,34.42
2022-09-28T09:47:38.254Z,26.25
2022-09-28T09:50:29.813Z,27.30
2022-09-28T09:53:06.277Z,23.70
2022-09-28T09:55:42.393Z,25.25
2022-09-28T09:58:43.706Z,24.90
2022-09-28T10:01:33.510Z,25.48
2022-09-28T10:04:33.521Z,21.80
2022-09-28T10:07:10.110Z,24.95
2022-09-28T10:09:45.763Z,23.35
2022-09-28T10:12:43.177Z,19.65
2022-09-28T10:15:23.019Z,19.70
2022-09-28T10:18:11.947Z,14.85
2022-09-28T10:20:58.757Z,16.63
2022-09-28T10:23:44.290Z,13.57
2022-09-28T10:26:25.333Z,17.58
2022-09-28T10:29:00.794Z,10.55
2022-09-28T10:31:42.791Z,11.63
2022-09-28T10:34:51.813Z,11.90
2022-09-28T10:37:24.270Z,11.02
2022-09-28T10:40:03.691Z,9.45
2022-09-28T10:42:36.214Z,12.70
2022-09-28T10:45:22.183Z,9.95
2022-09-28T10:47:51.602Z,9.27
2022-09-28T10:50:26.417Z,7.53
2022-09-28T10:53:17.169Z,7.18
2022-09-28T10:56:08.763Z,5.28
2022-09-28T10:58:41.837Z,7.10
2022-09-28T11:01:18.776Z,6.25
2022-09-28T11:03:55.804Z,7.75
2022-09-28T11:06:29.811Z,6.28
2022-09-28T11:09:02.786Z,8.52
2022-09-28T11:11:32.380Z,7.13
2022-09-28T11:14:05.629Z,9.48
2022-09-28T11:16:37.408Z,6.90
2022-09-28T11:19:29.478Z,5.90
2022-09-28T11:21:59.077Z,6.25
2022-09-28T11:24:35.886Z,5.38
2022-09-28T11:27:05.628Z,7.68
2022-09-28T11:29:41.634Z,4.80
2022-09-28T11:32:43.063Z,5.30
2022-09-28T11:35:26.023Z,4.90
2022-09-28T11:38:19.067Z,4.38
2022-09-28T11:41:57.749Z,5.07
2022-09-28T11:44:46.242Z,5.82
2022-09-28T11:47:38.757Z,6.13
2022-09-28T11:50:29.355Z,3.85
2022-09-28T11:53:17.793Z,3.70
2022-09-28T11:55:55.601Z,5.07
2022-09-28T11:58:30.875Z,6.75
2022-09-28T12:01:09.188Z,3.58
2022-09-28T12:04:10.566Z,4.53
2022-09-28T12:06:48.717Z,3.88
2022-09-28T12:09:26.577Z,5.13
2022-09-28T12:12:04.761Z,3.47
2022-09-28T12:14:48.403Z,3.70
2022-09-28T12:17:26.705Z,4.07
2022-09-28T12:20:04.481Z,3.65
2022-09-28T12:22:39.232Z,6.00
2022-09-28T12:25:17.216Z,3.97
2022-09-28T12:27:54.905Z,2.88
2022-09-28T12:30:25.656Z,3.50
2022-09-28T12:33:02.596Z,4.22
2022-09-28T12:35:49.024Z,3.15
2022-09-28T12:38:46.007Z,7.90
2022-09-28T12:41:39.131Z,3.65
2022-09-28T12:44:47.592Z,3.70
2022-09-28T12:47:49.482Z,3.58
2022-09-28T12:50:52.745Z,2.80
2022-09-28T12:53:54.746Z,3.92
2022-09-28T12:56:36.502Z,4.80
2022-09-28T12:59:20.368Z,4.75
2022-09-28T13:02:22.703Z,4.40
2022-09-28T13:05:22.505Z,7.57
2022-09-28T13:08:00.481Z,3.70
2022-09-28T13:10:38.950Z,4.25
2022-09-28T13:13:31.401Z,4.30
2022-09-28T13:16:09.983Z,3.53
2022-09-28T13:18:47.125Z,5.35
2022-09-28T13:21:28.368Z,4.72
2022-09-28T13:24:14.792Z,3.13
2022-09-28T13:26:50.666Z,3.72
2022-09-28T13:29:23.471Z,3.15
2022-09-28T13:31:55.876Z,4.15
2022-09-28T13:34:28.346Z,4.90
2022-09-28T13:37:25.995Z,4.47
2022-09-28T13:39:57.323Z,2.72
2022-09-28T13:42:47.465Z,4.28
2022-09-28T13:45:50.644Z,3.90
2022-09-28T13:48:22.670Z,6.95
2022-09-28T13:51:19.505Z,4.60
2022-09-28T13:54:30.065Z,2.55
2022-09-28T13:57:19.546Z,3.72
2022-09-28T14:00:02.083Z,4.78
2022-09-28T14:02:47.568Z,5.05
2022-09-28T14:05:46.499Z,2.95
2022-09-28T14:08:38.379Z,5.75
2022-09-28T14:11:43.064Z,5.53
2022-09-28T14:14:46.430Z,3.58
2022-09-28T14:17:53.931Z,4.45
2022-09-28T14:20:27.134Z,4.13
2022-09-28T14:23:45.685Z,3.85
2022-09-28T14:26:58.342Z,3.25
2022-09-28T14:29:31.227Z,2.30
2022-09-28T14:32:05.848Z,4.97
2022-09-28T14:34:41.956Z,4.13
2022-09-28T14:37:42.989Z,3.88
2022-09-28T14:40:38.143Z,4.00
2022-09-28T14:43:37.347Z,3.22
2022-09-28T14:46:34.139Z,2.95
2022-09-28T14:49:05.105Z,2.78
2022-09-28T14:52:13.309Z,6.63
2022-09-28T14:54:54.604Z,5.78
2022-09-28T14:57:27.002Z,3.65
2022-09-28T15:00:00.257Z,3.38
2022-09-28T15:02:33.965Z,4.90
2022-09-28T15:05:16.011Z,2.95
2022-09-28T15:07:49.471Z,4.95
2022-09-28T15:10:28.171Z,3.10
2022-09-28T15:12:57.576Z,3.92
2022-09-28T15:15:32.890Z,5.18
2022-09-28T15:18:28.444Z,6.32
2022-09-28T15:20:57.128Z,5.25
2022-09-28T15:23:35.232Z,3.53
2022-09-28T15:26:07.038Z,4.70
2022-09-28T15:28:39.251Z,4.80
2022-09-28T15:31:07.833Z,4.75
2022-09-28T15:33:54.249Z,3.45
2022-09-28T15:36:27.984Z,5.55
2022-09-28T15:39:04.193Z,5.70
2022-09-28T15:41:34.911Z,3.53
2022-09-28T15:44:27.202Z,4.30
2022-09-28T15:47:14.766Z,5.63
2022-09-28T15:49:47.723Z,5.45
2022-09-28T15:52:38.227Z,6.55
2022-09-28T15:55:24.608Z,4.93
2022-09-28T15:58:06.279Z,3.90
2022-09-28T16:00:34.900Z,6.53
2022-09-28T16:03:22.315Z,5.93
2022-09-28T16:05:54.137Z,6.75
2022-09-28T16:08:25.631Z,7.03
2022-09-28T16:11:07.982Z,6.28
2022-09-28T16:13:37.035Z,5.20
2022-09-28T16:16:05.458Z,9.40
2022-09-28T16:18:43.359Z,6.40
2022-09-28T16:21:45.016Z,12.02
2022-09-28T16:24:24.051Z,7.68
2022-09-28T16:27:01.281Z,8.60
2022-09-28T16:29:40.010Z,7.50
2022-09-28T16:32:38.191Z,9.32
2022-09-28T16:35:30.874Z,6.75
2022-09-28T16:38:12.396Z,8.65
2022-09-28T16:40:42.848Z,7.50
2022-09-28T16:43:23.366Z,6.57
2022-09-28T16:45:52.776Z,8.02
2022-09-28T16:48:21.810Z,8.75
2022-09-28T16:50:50.002Z,8.10
2022-09-28T16:53:36.779Z,8.18
2022-09-28T16:56:07.061Z,7.60
2022-09-28T16:58:38.992Z,8.40
2022-09-28T17:01:09.082Z,9.80
2022-09-28T17:03:37.511Z,9.63
2022-09-28T17:06:07.398Z,10.68
2022-09-28T17:08:36.030Z,8.98
2022-09-28T17:11:23.996Z,13.73
2022-09-28T17:13:56.762Z,12.43
2022-09-28T17:16:51.002Z,7.85
2022-09-28T17:19:23.144Z,8.20
2022-09-28T17:21:52.394Z,9.85
2022-09-28T17:24:21.793Z,9.27
2022-09-28T17:26:52.891Z,11.68
2022-09-28T17:29:23.670Z,11.65
2022-09-28T17:31:52.291Z,17.70
2022-09-28T17:34:20.768Z,13.75
2022-09-28T17:36:49.781Z,13.03
2022-09-28T17:39:19.986Z,11.75
2022-09-28T17:41:48.521Z,13.00
2022-09-28T17:44:16.843Z,14.20
2022-09-28T17:46:49.621Z,14.38
2022-09-28T17:49:18.595Z,16.25
2022-09-28T17:51:47.057Z,14.25
2022-09-28T17:54:16.858Z,17.10
2022-09-28T17:56:46.035Z,18.55
2022-09-28T17:59:18.044Z,17.60
2022-09-28T18:01:48.194Z,18.25
2022-09-28T18:04:39.651Z,17.75
2022-09-28T18:07:06.207Z,25.35
2022-09-28T18:09:34.274Z,20.10
2022-09-28T18:12:06.244Z,21.55
2022-09-28T18:14:35.637Z,17.90
2022-09-28T18:17:05.103Z,20.10
2022-09-28T18:19:33.174Z,18.67
2022-09-28T18:22:02.179Z,18.47
2022-09-28T18:24:32.280Z,19.40
2022-09-28T18:27:00.753Z,18.50
2022-09-28T18:29:32.866Z,20.58
2022-09-28T18:32:08.081Z,18.13
2022-09-28T18:34:39.842Z,21.45
2022-09-28T18:37:08.382Z,20.33
2022-09-28T18:39:36.738Z,23.48
2022-09-28T18:42:05.531Z,23.35
2022-09-28T18:44:34.789Z,24.38
2022-09-28T18:47:02.942Z,27.88
2022-09-28T18:49:33.552Z,26.17
2022-09-28T18:52:02.227Z,24.13
2022-09-28T18:54:30.302Z,29.37
2022-09-28T18:56:58.458Z,25.92
2022-09-28T18:59:26.946Z,27.80
2022-09-28T19:01:55.035Z,24.80
2022-09-28T19:04:23.515Z,26.80
2022-09-28T19:06:54.274Z,24.80
2022-09-28T19:09:24.705Z,24.03
2022-09-28T19:11:52.829Z,27.10
2022-09-28T19:14:21.108Z,24.57
2022-09-28T19:16:49.610Z,25.63
2022-09-28T19:19:20.877Z,26.50
2022-09-28T19:21:49.113Z,24.87
2022-09-28T19:24:19.895Z,23.60
2022-09-28T19:26:49.399Z,25.97
2022-09-28T19:29:17.547Z,25.07
2022-09-28T19:31:45.670Z,24.27
2022-09-28T19:34:14.424Z,24.27
2022-09-28T19:36:43.374Z,27.23
2022-09-28T19:39:15.210Z,22.42
2022-09-28T19:41:49.390Z,22.77
2022-09-28T19:44:24.567Z,26.03
2022-09-28T19:46:55.247Z,22.65
2022-09-28T19:49:25.296Z,27.70
2022-09-28T19:52:13.805Z,25.73
2022-09-28T19:54:44.833Z,28.03
2022-09-28T19:57:15.631Z,25.50
2022-09-28T19:59:44.192Z,28.33
2022-09-28T20:02:14.005Z,23.42
2022-09-28T20:04:42.083Z,27.83
2022-09-28T20:07:10.197Z,28.53
2022-09-28T20:09:38.307Z,32.40
2022-09-28T20:12:06.675Z,24.90
2022-09-28T20:14:38.201Z,26.40
2022-09-28T20:17:07.739Z,27.17
2022-09-28T20:19:36.009Z,24.23
2022-09-28T20:22:04.753Z,24.58
2022-09-28T20:24:33.471Z,28.27
2022-09-28T20:27:02.390Z,25.03
2022-09-28T20:29:32.472Z,22.80
2022-09-28T20:32:03.763Z,27.03
2022-09-28T20:34:33.361Z,24.10
2022-09-28T20:37:01.544Z,25.30
2022-09-28T20:39:29.860Z,28.27
2022-09-28T20:41:58.017Z,26.17
2022-09-28T20:44:26.224Z,24.50
2022-09-28T20:46:54.545Z,27.73
2022-09-28T20:49:24.285Z,27.07
2022-09-28T20:51:52.345Z,22.27
2022-09-28T20:54:22.117Z,26.10
2022-09-28T20:56:50.226Z,24.90
2022-09-28T20:59:18.357Z,26.87
2022-09-28T21:01:46.600Z,24.43
2022-09-28T21:04:14.867Z,24.57
2022-09-28T21:06:44.384Z,24.77
2022-09-28T21:09:13.400Z,23.40
2022-09-28T21:11:41.497Z,24.33
2022-09-28T21:14:10.607Z,24.87
2022-09-28T21:16:39.743Z,26.43
2022-09-28T21:19:09.163Z,22.10
2022-09-28T21:21:37.212Z,20.67
2022-09-28T21:24:07.565Z,23.33
2022-09-28T21:26:35.997Z,19.00
2022-09-28T21:29:06.985Z,19.77
2022-09-28T21:31:40.569Z,21.53
2022-09-28T21:34:13.169Z,21.70
2022-09-28T21:36:43.103Z,22.20
2022-09-28T21:39:12.498Z,22.37
2022-09-28T21:41:41.286Z,19.73
2022-09-28T21:44:10.009Z,21.43
2022-09-28T21:46:39.602Z,19.33
2022-09-28T21:49:09.012Z,20.77
2022-09-28T21:51:37.916Z,17.77
2022-09-28T21:54:06.606Z,23.37
2022-09-28T21:56:35.998Z,19.20
2022-09-28T21:59:04.116Z,17.77
2022-09-28T22:01:32.335Z,17.93
2022-09-28T22:04:02.017Z,17.40
2022-09-28T22:06:30.107Z,16.50
2022-09-28T22:08:58.845Z,20.07
2022-09-28T22:11:29.208Z,17.67
2022-09-28T22:14:00.800Z,18.93
2022-09-28T22:16:31.814Z,20.27
2022-09-28T22:19:00.563Z,22.13
2022-09-28T22:21:30.497Z,18.60
2022-09-28T22:24:01.334Z,19.53
2022-09-28T22:26:31.603Z,18.80
2022-09-28T22:29:03.324Z,20.57
2022-09-28T22:31:34.350Z,19.90
2022-09-28T22:34:03.325Z,18.30
2022-09-28T22:36:31.790Z,18.77
2022-09-28T22:39:00.763Z,16.63
2022-09-28T22:41:29.995Z,16.27
2022-09-28T22:43:58.922Z,15.73
2022-09-28T22:46:31.759Z,17.07
2022-09-28T22:49:01.139Z,17.87
2022-09-28T22:51:31.135Z,16.77
2022-09-28T22:53:59.717Z,17.80
2022-09-28T22:56:28.219Z,19.03
2022-09-28T22:58:56.669Z,18.87
2022-09-28T23:01:26.815Z,17.40
2022-09-28T23:03:57.772Z,18.20
2022-09-28T23:06:28.980Z,17.17
2022-09-28T23:09:03.597Z,22.90
2022-09-28T23:11:31.854Z,20.20
2022-09-28T23:14:00.858Z,20.10
2022-09-28T23:16:30.148Z,22.17
2022-09-28T23:18:59.812Z,23.43
2022-09-28T23:21:29.266Z,18.63
2022-09-28T23:24:01.106Z,18.30
2022-09-28T23:26:32.625Z,20.47
2022-09-28T23:29:01.335Z,18.20
2022-09-28T23:31:32.167Z,22.70
2022-09-28T23:34:04.659Z,20.43
2022-09-28T23:36:33.850Z,18.13
2022-09-28T23:39:02.065Z,19.70
2022-09-28T23:41:30.495Z,20.73
2022-09-28T23:43:59.032Z,22.30
2022-09-28T23:46:27.331Z,22.03
2022-09-28T23:48:55.873Z,19.07
2022-09-28T23:51:28.091Z,17.27
2022-09-28T23:53:56.316Z,19.83
2022-09-28T23:56:24.616Z,19.23
2022-09-28T23:58:52.784Z,21.97
